Aviation Digital Data Service (ADDS)

Output produced by METARs form (0346 UTC 19 July 2018)
found at http://www.aviationweather.gov/adds/metars/
 
METAR text: KCCR 190253Z 28009KT 10SM CLR 29/12 A2987 RMK AO2 SLP100 T02890117 53002
Conditions at: KCCR (CONCORD , CA, US) observed 0253 UTC 19 July 2018
Temperature: 28.9°C (84°F)
Dewpoint: 11.7°C (53°F) [RH = 35%]
Pressure (altimeter): 29.87 inches Hg (1011.6 mb)
[Sea-level pressure: 1010.0 mb]
Winds: from the W (280 degrees) at 10 MPH (9 knots; 4.7 m/s)
Visibility: 10 or more miles (16+ km)
Ceiling: at least 12,000 feet AGL
Clouds: sky clear below 12,000 feet AGL
Weather: no significant weather observed at this time

METAR text: KCCR 190153Z 27008KT 10SM CLR 31/13 A2986 RMK AO2 SLP098 T03110128
Conditions at: KCCR (CONCORD , CA, US) observed 0153 UTC 19 July 2018
Temperature: 31.1°C (88°F)
Dewpoint: 12.8°C (55°F) [RH = 33%]
Pressure (altimeter): 29.86 inches Hg (1011.3 mb)
[Sea-level pressure: 1009.8 mb]
Winds: from the W (270 degrees) at 9 MPH (8 knots; 4.2 m/s)
Visibility: 10 or more miles (16+ km)
Ceiling: at least 12,000 feet AGL
Clouds: sky clear below 12,000 feet AGL
Weather: no significant weather observed at this time

METAR text: KCCR 190053Z 29012G19KT 10SM CLR 33/14 A2986 RMK AO2 SLP098 T03280139
Conditions at: KCCR (CONCORD , CA, US) observed 0053 UTC 19 July 2018
Temperature: 32.8°C (91°F)
Dewpoint: 13.9°C (57°F) [RH = 32%]
Pressure (altimeter): 29.86 inches Hg (1011.3 mb)
[Sea-level pressure: 1009.8 mb]
Winds: from the WNW (290 degrees) at 14 MPH (12 knots; 6.2 m/s)
gusting to 22 MPH (19 knots; 9.9 m/s)
Visibility: 10 or more miles (16+ km)
Ceiling: at least 12,000 feet AGL
Clouds: sky clear below 12,000 feet AGL
Weather: no significant weather observed at this time

METAR text: KCCR 182353Z 32013KT 10SM CLR 34/14 A2986 RMK AO2 SLP098 T03390144 10350 20239 56020
Conditions at: KCCR (CONCORD , CA, US) observed 2353 UTC 18 July 2018
Temperature: 33.9°C (93°F)
Dewpoint: 14.4°C (58°F) [RH = 31%]
Pressure (altimeter): 29.86 inches Hg (1011.3 mb)
[Sea-level pressure: 1009.8 mb]
Winds: from the NW (320 degrees) at 15 MPH (13 knots; 6.8 m/s)
Visibility: 10 or more miles (16+ km)
Ceiling: at least 12,000 feet AGL
Clouds: sky clear below 12,000 feet AGL
Weather: no significant weather observed at this time

METAR text: KCCR 182253Z 30013KT 10SM CLR 35/13 A2987 RMK AO2 SLP103 T03500133
Conditions at: KCCR (CONCORD , CA, US) observed 2253 UTC 18 July 2018
Temperature: 35.0°C (95°F)
Dewpoint: 13.3°C (56°F) [RH = 27%]
Pressure (altimeter): 29.87 inches Hg (1011.6 mb)
[Sea-level pressure: 1010.3 mb]
Winds: from the WNW (300 degrees) at 15 MPH (13 knots; 6.8 m/s)
Visibility: 10 or more miles (16+ km)
Ceiling: at least 12,000 feet AGL
Clouds: sky clear below 12,000 feet AGL
Weather: no significant weather observed at this time

METAR text: KCCR 182153Z 31013KT 10SM CLR 33/14 A2990 RMK AO2 SLP110 T03330139
Conditions at: KCCR (CONCORD , CA, US) observed 2153 UTC 18 July 2018
Temperature: 33.3°C (92°F)
Dewpoint: 13.9°C (57°F) [RH = 31%]
Pressure (altimeter): 29.90 inches Hg (1012.6 mb)
[Sea-level pressure: 1011.0 mb]
Winds: from the NW (310 degrees) at 15 MPH (13 knots; 6.8 m/s)
Visibility: 10 or more miles (16+ km)
Ceiling: at least 12,000 feet AGL
Clouds: sky clear below 12,000 feet AGL
Weather: no significant weather observed at this time

METAR text: KCCR 182053Z 31009KT 10SM CLR 31/13 A2992 RMK AO2 SLP119 T03110133 58014
Conditions at: KCCR (CONCORD , CA, US) observed 2053 UTC 18 July 2018
Temperature: 31.1°C (88°F)
Dewpoint: 13.3°C (56°F) [RH = 34%]
Pressure (altimeter): 29.92 inches Hg (1013.3 mb)
[Sea-level pressure: 1011.9 mb]
Winds: from the NW (310 degrees) at 10 MPH (9 knots; 4.7 m/s)
Visibility: 10 or more miles (16+ km)
Ceiling: at least 12,000 feet AGL
Clouds: sky clear below 12,000 feet AGL
Weather: no significant weather observed at this time

METAR text: KCCR 181953Z 31007KT 10SM CLR 28/14 A2994 RMK AO2 SLP125 T02780139
Conditions at: KCCR (CONCORD , CA, US) observed 1953 UTC 18 July 2018
Temperature: 27.8°C (82°F)
Dewpoint: 13.9°C (57°F) [RH = 43%]
Pressure (altimeter): 29.94 inches Hg (1014.0 mb)
[Sea-level pressure: 1012.5 mb]
Winds: from the NW (310 degrees) at 8 MPH (7 knots; 3.6 m/s)
Visibility: 10 or more miles (16+ km)
Ceiling: at least 12,000 feet AGL
Clouds: sky clear below 12,000 feet AGL
Weather: no significant weather observed at this time